Time;durP1;ratioP1;P1;durP2;ratioP2;P2;SDS_P1;SDS_P2;PMS_P1;PMS_P2;Temp;Humidity;BMP_temperature;BMP_pressure;BME280_temperature;BME280_humidity;BME280_pressure;Samples;Min_cycle;Max_cycle;Signal;HPM_P1;HPM_P2
2021/07/20 00:00:09;;;;;;;2.55;0.20;;;;;;;;;;4996365;28;20430;-69
2021/07/20 00:02:41;;;;;;;0.55;0.25;;;;;;;;;;5004737;28;20088;-71
2021/07/20 00:05:10;;;;;;;1.52;0.20;;;;;;;;;;5004782;28;20487;-70
2021/07/20 00:07:38;;;;;;;0.57;0.20;;;;;;;;;;5001392;28;20018;-72
2021/07/20 00:10:12;;;;;;;0.95;0.20;;;;;;;;;;5007178;28;20054;-70
2021/07/20 00:12:40;;;;;;;0.32;0.20;;;;;;;;;;5006572;28;20038;-70
2021/07/20 00:15:09;;;;;;;1.05;0.30;;;;;;;;;;5001495;28;20038;-70
2021/07/20 00:17:36;;;;;;;0.73;0.20;;;;;;;;;;5003829;28;20022;-69
2021/07/20 00:20:05;;;;;;;0.30;0.10;;;;;;;;;;5000115;28;20525;-70
2021/07/20 00:22:32;;;;;;;2.28;0.47;;;;;;;;;;4982083;28;20050;-70
2021/07/20 00:24:59;;;;;;;0.47;0.20;;;;;;;;;;5003275;28;20024;-69
2021/07/20 00:27:26;;;;;;;1.77;0.20;;;;;;;;;;4999795;28;20030;-69
2021/07/20 00:29:53;;;;;;;0.68;0.25;;;;;;;;;;5003727;28;20032;-69
2021/07/20 00:32:21;;;;;;;0.40;0.17;;;;;;;;;;5002981;28;20391;-71
2021/07/20 00:34:48;;;;;;;1.52;0.30;;;;;;;;;;5007137;28;20042;-71
2021/07/20 00:37:15;;;;;;;2.08;0.65;;;;;;;;;;5011822;28;20060;-71
2021/07/20 00:39:42;;;;;;;0.40;0.10;;;;;;;;;;5008081;28;20018;-71
2021/07/20 00:42:09;;;;;;;1.60;0.25;;;;;;;;;;5009905;28;20403;-71
2021/07/20 00:44:36;;;;;;;1.42;0.20;;;;;;;;;;5011558;28;20109;-72
2021/07/20 00:47:03;;;;;;;1.67;0.30;;;;;;;;;;4992038;28;20033;-71
2021/07/20 00:49:31;;;;;;;2.10;0.40;;;;;;;;;;5007396;28;20479;-71
2021/07/20 00:51:58;;;;;;;1.50;0.25;;;;;;;;;;5013282;28;20022;-71
2021/07/20 00:54:25;;;;;;;3.72;0.43;;;;;;;;;;5014721;28;20034;-71
2021/07/20 00:56:52;;;;;;;1.00;0.20;;;;;;;;;;5009251;28;20101;-70
2021/07/20 00:59:20;;;;;;;1.23;0.30;;;;;;;;;;5012906;28;20030;-69
2021/07/20 01:01:47;;;;;;;0.93;0.20;;;;;;;;;;5004326;28;20046;-68
2021/07/20 01:04:14;;;;;;;1.13;0.25;;;;;;;;;;5007207;28;20437;-68
2021/07/20 01:06:42;;;;;;;0.70;0.20;;;;;;;;;;5005761;28;20064;-71
2021/07/20 01:09:10;;;;;;;0.68;0.20;;;;;;;;;;5004338;28;20069;-71
2021/07/20 01:11:37;;;;;;;1.75;0.50;;;;;;;;;;5002676;28;20026;-69
2021/07/20 01:14:05;;;;;;;0.82;0.10;;;;;;;;;;5003884;28;20034;-69
2021/07/20 01:16:32;;;;;;;0.95;0.17;;;;;;;;;;5005355;28;20018;-70
2021/07/20 01:19:01;;;;;;;0.95;0.22;;;;;;;;;;5007284;28;20026;-70
2021/07/20 01:21:29;;;;;;;0.57;0.20;;;;;;;;;;5001874;28;20018;-70
2021/07/20 01:24:05;;;;;;;1.10;0.20;;;;;;;;;;5007521;28;22837;-70
2021/07/20 01:26:32;;;;;;;1.80;0.40;;;;;;;;;;5006965;28;20037;-70
2021/07/20 01:29:00;;;;;;;2.25;0.30;;;;;;;;;;5008238;28;20022;-71
2021/07/20 01:31:28;;;;;;;0.47;0.10;;;;;;;;;;5006001;28;20029;-70
2021/07/20 01:33:56;;;;;;;0.65;0.30;;;;;;;;;;5006333;28;20038;-71
2021/07/20 01:36:23;;;;;;;2.40;0.30;;;;;;;;;;5005083;28;20052;-71
2021/07/20 01:38:55;;;;;;;0.20;0.20;;;;;;;;;;5009387;28;20426;-71
2021/07/20 01:41:22;;;;;;;1.05;0.20;;;;;;;;;;5011877;28;20031;-71
2021/07/20 01:43:53;;;;;;;0.82;0.20;;;;;;;;;;4988593;28;20037;-70
2021/07/20 01:46:21;;;;;;;0.52;0.20;;;;;;;;;;5004120;28;20080;-70
2021/07/20 01:48:50;;;;;;;1.55;0.20;;;;;;;;;;5003018;28;20540;-69
2021/07/20 01:51:18;;;;;;;0.70;0.20;;;;;;;;;;5005283;28;20151;-69
2021/07/20 01:53:45;;;;;;;1.27;0.10;;;;;;;;;;5005019;28;20042;-70
2021/07/20 01:56:13;;;;;;;2.28;0.10;;;;;;;;;;5006357;28;20030;-70
2021/07/20 01:58:43;;;;;;;0.22;0.10;;;;;;;;;;5005210;28;20030;-69
2021/07/20 02:01:26;;;;;;;0.90;0.20;;;;;;;;;;5003795;28;20033;-69
2021/07/20 02:09:13;;;;;;;0.38;0.20;;;;;;;;;;5005829;28;20064;-70
2021/07/20 02:11:41;;;;;;;0.47;0.20;;;;;;;;;;5007387;28;20483;-70
2021/07/20 02:14:11;;;;;;;0.85;0.15;;;;;;;;;;5008554;28;20029;-69
2021/07/20 02:16:44;;;;;;;1.20;0.10;;;;;;;;;;5003076;28;20175;-68
2021/07/20 02:19:34;;;;;;;0.85;0.10;;;;;;;;;;5003418;28;20073;-70
2021/07/20 02:22:02;;;;;;;0.90;0.10;;;;;;;;;;4990744;28;20128;-69
2021/07/20 02:24:30;;;;;;;1.05;0.20;;;;;;;;;;5004121;28;20049;-70
2021/07/20 02:27:02;;;;;;;0.00;0.00;;;;;;;;;;5005086;28;20097;-70
2021/07/20 02:29:30;;;;;;;0.40;0.10;;;;;;;;;;5003619;28;20026;-69
2021/07/20 02:31:58;;;;;;;0.95;0.10;;;;;;;;;;5004438;28;20022;-71
2021/07/20 02:34:27;;;;;;;0.43;0.10;;;;;;;;;;5006876;28;20033;-71
2021/07/20 02:36:55;;;;;;;1.38;0.20;;;;;;;;;;5003320;28;20478;-70
2021/07/20 02:39:23;;;;;;;0.70;0.10;;;;;;;;;;5002852;28;20030;-70
2021/07/20 02:41:51;;;;;;;0.50;0.10;;;;;;;;;;4998971;28;20045;-70
2021/07/20 02:44:19;;;;;;;0.30;0.10;;;;;;;;;;5000058;28;20092;-70
2021/07/20 02:46:46;;;;;;;1.80;0.30;;;;;;;;;;4999507;28;20022;-69
2021/07/20 02:49:15;;;;;;;3.85;0.10;;;;;;;;;;5001393;28;20052;-69
2021/07/20 02:51:45;;;;;;;0.30;0.10;;;;;;;;;;5001661;28;20486;-70
2021/07/20 02:54:12;;;;;;;1.55;0.10;;;;;;;;;;5009227;28;20172;-70
2021/07/20 02:56:42;;;;;;;0.93;0.10;;;;;;;;;;5003825;28;20026;-70
2021/07/20 02:59:10;;;;;;;1.88;0.20;;;;;;;;;;5006478;28;20032;-71
2021/07/20 03:01:39;;;;;;;1.55;0.15;;;;;;;;;;4999270;28;20034;-70
2021/07/20 03:04:07;;;;;;;1.25;0.25;;;;;;;;;;4998125;28;20030;-70
2021/07/20 03:06:35;;;;;;;2.35;0.10;;;;;;;;;;5011476;28;20498;-69
2021/07/20 03:09:02;;;;;;;6.22;0.40;;;;;;;;;;5002599;28;20189;-69
2021/07/20 03:11:31;;;;;;;0.95;0.10;;;;;;;;;;5003982;28;20030;-70
2021/07/20 03:14:00;;;;;;;2.33;0.10;;;;;;;;;;5005092;28;20724;-70
2021/07/20 03:16:28;;;;;;;0.55;0.17;;;;;;;;;;5007058;28;20041;-70
2021/07/20 03:18:56;;;;;;;1.55;0.30;;;;;;;;;;4997336;28;20026;-72
2021/07/20 03:21:23;;;;;;;0.95;0.20;;;;;;;;;;5003983;28;20026;-71
2021/07/20 03:23:51;;;;;;;0.85;0.20;;;;;;;;;;5005071;28;20176;-70
2021/07/20 03:26:19;;;;;;;1.30;0.30;;;;;;;;;;5008822;28;20068;-70
2021/07/20 03:28:46;;;;;;;0.47;0.20;;;;;;;;;;5003909;28;20487;-70
2021/07/20 03:31:14;;;;;;;0.47;0.10;;;;;;;;;;4995801;28;20046;-71
2021/07/20 03:33:41;;;;;;;1.60;0.10;;;;;;;;;;5000565;28;20044;-69
2021/07/20 03:36:09;;;;;;;3.17;0.28;;;;;;;;;;5007005;28;20026;-70
2021/07/20 03:38:36;;;;;;;0.47;0.10;;;;;;;;;;5006187;28;20029;-70
2021/07/20 03:41:04;;;;;;;0.10;0.10;;;;;;;;;;5005527;28;20395;-70
2021/07/20 03:43:31;;;;;;;0.35;0.10;;;;;;;;;;5001591;28;20096;-70
2021/07/20 03:46:01;;;;;;;1.02;0.35;;;;;;;;;;5005979;28;20097;-70
2021/07/20 03:48:31;;;;;;;1.30;0.10;;;;;;;;;;5002783;28;20029;-69
2021/07/20 03:50:59;;;;;;;0.95;0.15;;;;;;;;;;5002404;28;20026;-69
2021/07/20 03:53:29;;;;;;;0.60;0.15;;;;;;;;;;5002539;28;20042;-71
2021/07/20 03:55:59;;;;;;;0.93;0.10;;;;;;;;;;4985958;28;20037;-73
2021/07/20 03:58:26;;;;;;;0.60;0.20;;;;;;;;;;5003179;28;20029;-68
2021/07/20 04:00:55;;;;;;;0.47;0.10;;;;;;;;;;5004729;28;20037;-70
2021/07/20 04:03:26;;;;;;;0.40;0.10;;;;;;;;;;4999405;28;20026;-69
2021/07/20 04:05:58;;;;;;;1.13;0.20;;;;;;;;;;5003114;28;20048;-68
2021/07/20 04:08:26;;;;;;;0.75;0.15;;;;;;;;;;5006041;28;20527;-71
2021/07/20 04:10:54;;;;;;;2.92;0.43;;;;;;;;;;5002355;28;20030;-71
2021/07/20 04:13:22;;;;;;;2.55;0.40;;;;;;;;;;4994962;28;20042;-70
2021/07/20 04:15:52;;;;;;;1.13;0.40;;;;;;;;;;4997370;28;20494;-70
2021/07/20 04:18:19;;;;;;;1.95;0.30;;;;;;;;;;5005611;28;20479;-71
2021/07/20 04:20:47;;;;;;;0.40;0.10;;;;;;;;;;5004643;28;20167;-71
2021/07/20 04:23:15;;;;;;;1.10;0.38;;;;;;;;;;5004575;28;20026;-69
2021/07/20 04:25:47;;;;;;;0.82;0.20;;;;;;;;;;4999698;28;20036;-71
2021/07/20 04:28:17;;;;;;;0.75;0.10;;;;;;;;;;5000977;28;20025;-70
2021/07/20 04:30:45;;;;;;;0.88;0.10;;;;;;;;;;5000543;28;20038;-70
2021/07/20 04:33:16;;;;;;;0.28;0.20;;;;;;;;;;5002008;28;20176;-69
2021/07/20 04:35:44;;;;;;;0.82;0.25;;;;;;;;;;5002906;28;20036;-70
2021/07/20 04:38:12;;;;;;;0.98;0.10;;;;;;;;;;5000591;28;20525;-69
2021/07/20 04:40:42;;;;;;;0.45;0.15;;;;;;;;;;4989033;28;20398;-71
2021/07/20 04:43:12;;;;;;;2.30;0.10;;;;;;;;;;4996365;28;20498;-72
2021/07/20 04:45:42;;;;;;;0.55;0.00;;;;;;;;;;5001948;28;20026;-70
2021/07/20 04:48:10;;;;;;;1.55;0.10;;;;;;;;;;5002523;28;20105;-71
2021/07/20 04:50:37;;;;;;;1.15;0.20;;;;;;;;;;5004924;28;20053;-71
2021/07/20 04:53:04;;;;;;;0.93;0.10;;;;;;;;;;4997430;28;20402;-72
2021/07/20 04:55:34;;;;;;;0.68;0.17;;;;;;;;;;4994413;28;20062;-71
2021/07/20 04:58:04;;;;;;;1.45;0.20;;;;;;;;;;5000107;28;20050;-72
2021/07/20 05:00:31;;;;;;;1.33;0.10;;;;;;;;;;4999451;28;20067;-71
2021/07/20 05:03:00;;;;;;;2.75;0.20;;;;;;;;;;4998827;28;20057;-73
2021/07/20 05:05:30;;;;;;;0.85;0.20;;;;;;;;;;4987156;28;20038;-72
2021/07/20 05:07:57;;;;;;;1.65;0.30;;;;;;;;;;4990995;28;20462;-72
2021/07/20 05:10:25;;;;;;;0.85;0.17;;;;;;;;;;5000314;28;20113;-71
2021/07/20 05:12:52;;;;;;;1.23;0.30;;;;;;;;;;4997018;28;20918;-71
2021/07/20 05:15:21;;;;;;;0.80;0.38;;;;;;;;;;4996529;28;20059;-72
2021/07/20 05:17:48;;;;;;;0.75;0.10;;;;;;;;;;4997419;28;20495;-71
2021/07/20 05:20:17;;;;;;;1.55;0.38;;;;;;;;;;4997904;28;20142;-71
2021/07/20 05:22:45;;;;;;;1.38;0.35;;;;;;;;;;4995344;28;20022;-69
2021/07/20 05:25:13;;;;;;;0.30;0.20;;;;;;;;;;5001631;28;20026;-71
2021/07/20 05:27:43;;;;;;;0.40;0.20;;;;;;;;;;5000073;28;20072;-71
2021/07/20 05:30:11;;;;;;;1.75;0.40;;;;;;;;;;5002773;28;20022;-71
2021/07/20 05:32:41;;;;;;;1.00;0.20;;;;;;;;;;4996864;28;20029;-71
2021/07/20 05:35:13;;;;;;;0.82;0.10;;;;;;;;;;5006111;28;20022;-72
2021/07/20 05:37:40;;;;;;;2.50;0.68;;;;;;;;;;4999722;28;20030;-71
2021/07/20 05:40:09;;;;;;;0.80;0.30;;;;;;;;;;5008537;28;20395;-71
2021/07/20 05:42:36;;;;;;;0.47;0.20;;;;;;;;;;5005646;28;20028;-71
2021/07/20 05:45:05;;;;;;;0.93;0.40;;;;;;;;;;5007652;28;20029;-71
2021/07/20 05:47:34;;;;;;;1.05;0.30;;;;;;;;;;5009714;28;20018;-70
2021/07/20 05:50:02;;;;;;;1.10;0.40;;;;;;;;;;5008340;28;20065;-69
2021/07/20 05:52:29;;;;;;;0.90;0.40;;;;;;;;;;5006886;28;20026;-70
2021/07/20 05:54:57;;;;;;;1.98;0.57;;;;;;;;;;5008914;28;20030;-72
2021/07/20 05:57:25;;;;;;;0.63;0.20;;;;;;;;;;5010495;28;20676;-72
2021/07/20 05:59:53;;;;;;;1.17;0.30;;;;;;;;;;5010685;28;20390;-72
2021/07/20 06:02:21;;;;;;;0.90;0.40;;;;;;;;;;5012922;28;20028;-72
2021/07/20 06:04:49;;;;;;;1.25;0.40;;;;;;;;;;5014181;28;20037;-72
2021/07/20 06:07:16;;;;;;;1.00;0.38;;;;;;;;;;5005167;28;20064;-71
2021/07/20 06:09:45;;;;;;;1.75;0.45;;;;;;;;;;5014129;28;20053;-72
2021/07/20 06:12:16;;;;;;;1.10;0.25;;;;;;;;;;5008455;28;20117;-72
2021/07/20 06:14:44;;;;;;;0.50;0.20;;;;;;;;;;5006303;28;20038;-72
2021/07/20 06:17:11;;;;;;;1.65;0.38;;;;;;;;;;5011866;28;20030;-71
2021/07/20 06:19:39;;;;;;;2.03;0.30;;;;;;;;;;5014216;28;20030;-70
2021/07/20 06:22:08;;;;;;;0.80;0.30;;;;;;;;;;5007778;28;20026;-72
2021/07/20 06:24:38;;;;;;;0.88;0.38;;;;;;;;;;5012849;28;20034;-71
2021/07/20 06:27:05;;;;;;;1.92;0.40;;;;;;;;;;5005601;28;20029;-72
2021/07/20 06:29:33;;;;;;;1.42;0.38;;;;;;;;;;5009704;28;20088;-71
2021/07/20 06:32:02;;;;;;;0.88;0.43;;;;;;;;;;4987987;28;20089;-71
2021/07/20 06:34:30;;;;;;;1.30;0.30;;;;;;;;;;5004665;28;20054;-72
2021/07/20 06:36:57;;;;;;;0.98;0.35;;;;;;;;;;5005567;28;20046;-72
2021/07/20 06:39:24;;;;;;;0.73;0.32;;;;;;;;;;5013738;28;20026;-71
2021/07/20 06:41:52;;;;;;;1.98;0.50;;;;;;;;;;5010359;28;20029;-71
2021/07/20 06:44:19;;;;;;;1.60;0.40;;;;;;;;;;5010908;28;22211;-72
2021/07/20 06:46:46;;;;;;;0.75;0.47;;;;;;;;;;5003921;28;20030;-71
2021/07/20 06:49:14;;;;;;;1.23;0.20;;;;;;;;;;5006322;28;20518;-70
2021/07/20 06:51:42;;;;;;;0.75;0.32;;;;;;;;;;5007505;28;20030;-73
2021/07/20 06:54:09;;;;;;;0.88;0.30;;;;;;;;;;5008464;28;20022;-71
2021/07/20 06:56:56;;;;;;;1.42;0.50;;;;;;;;;;5010347;28;20044;-71
2021/07/20 06:59:28;;;;;;;2.00;0.47;;;;;;;;;;5006456;28;20026;-70
2021/07/20 07:01:58;;;;;;;1.17;0.45;;;;;;;;;;5009389;28;20055;-68
2021/07/20 07:04:27;;;;;;;2.55;0.50;;;;;;;;;;5009185;28;20118;-68
2021/07/20 07:06:57;;;;;;;1.85;0.50;;;;;;;;;;5004000;28;20109;-69
2021/07/20 07:09:31;;;;;;;1.63;0.50;;;;;;;;;;5004246;28;20049;-69
2021/07/20 07:12:02;;;;;;;1.23;0.43;;;;;;;;;;5004281;28;20449;-69
2021/07/20 07:14:30;;;;;;;1.15;0.38;;;;;;;;;;5003613;28;20025;-69
2021/07/20 07:16:57;;;;;;;2.13;0.40;;;;;;;;;;5005891;28;20025;-68
2021/07/20 07:19:25;;;;;;;1.15;0.50;;;;;;;;;;5005896;28;20057;-70
2021/07/20 07:21:54;;;;;;;1.90;0.52;;;;;;;;;;5001210;28;20431;-70
2021/07/20 07:24:22;;;;;;;3.75;0.93;;;;;;;;;;5004319;28;20113;-68
2021/07/20 07:26:50;;;;;;;2.13;0.60;;;;;;;;;;4988838;28;20767;-69
2021/07/20 07:29:18;;;;;;;1.00;0.50;;;;;;;;;;4999947;28;20101;-69
2021/07/20 07:31:47;;;;;;;3.53;0.80;;;;;;;;;;5003105;28;20037;-68
2021/07/20 07:34:14;;;;;;;1.98;0.90;;;;;;;;;;5005933;28;20477;-67
2021/07/20 07:36:46;;;;;;;3.33;0.60;;;;;;;;;;5011004;28;20030;-69
2021/07/20 07:39:14;;;;;;;1.70;0.70;;;;;;;;;;5008165;28;20390;-67
2021/07/20 07:41:43;;;;;;;1.38;0.70;;;;;;;;;;5008182;28;20593;-68
2021/07/20 07:44:15;;;;;;;1.45;0.60;;;;;;;;;;5001260;28;20033;-69
2021/07/20 07:46:43;;;;;;;2.38;1.10;;;;;;;;;;5005237;28;20042;-68
2021/07/20 07:49:11;;;;;;;1.95;0.73;;;;;;;;;;5007717;28;20023;-68
2021/07/20 07:51:42;;;;;;;1.70;0.65;;;;;;;;;;4986075;28;20192;-69
2021/07/20 07:54:10;;;;;;;2.30;0.77;;;;;;;;;;5004420;28;20060;-69
2021/07/20 07:56:38;;;;;;;2.47;0.60;;;;;;;;;;5006473;28;20028;-68
2021/07/20 07:59:06;;;;;;;1.75;0.52;;;;;;;;;;5005027;28;20025;-69
2021/07/20 08:01:33;;;;;;;3.50;0.80;;;;;;;;;;5004221;28;20019;-68
2021/07/20 08:04:02;;;;;;;2.20;0.75;;;;;;;;;;5003781;28;20650;-67
2021/07/20 08:06:30;;;;;;;1.13;0.65;;;;;;;;;;5006279;28;20556;-68
2021/07/20 08:08:59;;;;;;;3.42;1.05;;;;;;;;;;5008347;28;20054;-68
2021/07/20 08:11:27;;;;;;;1.63;0.63;;;;;;;;;;5000988;28;20026;-69
2021/07/20 08:13:56;;;;;;;1.15;0.55;;;;;;;;;;5023331;28;20046;-69
2021/07/20 08:16:24;;;;;;;1.92;0.70;;;;;;;;;;5025775;28;20061;-70
2021/07/20 08:18:51;;;;;;;1.85;0.63;;;;;;;;;;5024812;28;20030;-69
2021/07/20 08:21:19;;;;;;;2.90;0.50;;;;;;;;;;5029287;28;20025;-69
2021/07/20 08:23:46;;;;;;;3.58;0.80;;;;;;;;;;5008881;28;20477;-70
2021/07/20 08:26:18;;;;;;;3.53;0.60;;;;;;;;;;5018975;28;20018;-70
2021/07/20 08:28:49;;;;;;;2.03;0.73;;;;;;;;;;5023683;28;20021;-69
2021/07/20 08:31:17;;;;;;;2.25;0.70;;;;;;;;;;5026250;28;20028;-68
2021/07/20 08:33:46;;;;;;;1.90;0.70;;;;;;;;;;5031053;28;20500;-71
2021/07/20 08:36:18;;;;;;;2.22;0.60;;;;;;;;;;5031187;28;20381;-69
2021/07/20 08:38:49;;;;;;;1.75;0.40;;;;;;;;;;5029152;28;20026;-69
2021/07/20 08:41:36;;;;;;;2.75;0.63;;;;;;;;;;5030545;28;20438;-69
2021/07/20 08:44:21;;;;;;;1.45;0.50;;;;;;;;;;5021388;28;20037;-69
2021/07/20 08:46:48;;;;;;;3.28;0.52;;;;;;;;;;5030272;28;20120;-69
2021/07/20 08:49:34;;;;;;;0.98;0.32;;;;;;;;;;4996903;28;20441;-69
2021/07/20 08:52:01;;;;;;;2.35;0.32;;;;;;;;;;5012951;28;20049;-69
2021/07/20 08:54:30;;;;;;;1.58;0.60;;;;;;;;;;5031349;28;20056;-68
2021/07/20 08:57:01;;;;;;;1.25;0.35;;;;;;;;;;5025720;28;20045;-69
2021/07/20 08:59:38;;;;;;;1.08;0.40;;;;;;;;;;5005136;28;20509;-69
2021/07/20 09:02:23;;;;;;;1.55;0.30;;;;;;;;;;5004937;28;20033;-70
2021/07/20 09:04:58;;;;;;;0.47;0.20;;;;;;;;;;5032312;28;20049;-69
2021/07/20 09:07:27;;;;;;;1.58;0.50;;;;;;;;;;5011491;28;20030;-69
2021/07/20 09:09:57;;;;;;;3.92;1.17;;;;;;;;;;5023324;28;20119;-69
2021/07/20 09:12:28;;;;;;;4.00;1.45;;;;;;;;;;5031950;28;20397;-68
2021/07/20 09:15:01;;;;;;;1.40;0.75;;;;;;;;;;5017246;28;20133;-68
2021/07/20 09:17:28;;;;;;;1.58;0.80;;;;;;;;;;5033956;28;20028;-69
2021/07/20 09:20:14;;;;;;;1.27;0.60;;;;;;;;;;5007116;28;20029;-69
2021/07/20 09:22:47;;;;;;;1.45;0.55;;;;;;;;;;5023403;28;20108;-66
2021/07/20 09:25:14;;;;;;;1.85;0.70;;;;;;;;;;5036062;28;20014;-69
2021/07/20 09:28:08;;;;;;;1.50;0.95;;;;;;;;;;5033621;28;20136;-67
2021/07/20 09:30:37;;;;;;;1.13;0.57;;;;;;;;;;5026691;28;20069;-69
2021/07/20 09:33:24;;;;;;;1.70;0.80;;;;;;;;;;5031941;28;20081;-69
2021/07/20 09:36:00;;;;;;;1.55;0.98;;;;;;;;;;5033376;28;20034;-68
2021/07/20 09:38:30;;;;;;;2.00;1.00;;;;;;;;;;5025862;28;20475;-69
2021/07/20 09:40:58;;;;;;;2.03;0.93;;;;;;;;;;5033434;28;20028;-69
2021/07/20 09:43:31;;;;;;;4.07;1.23;;;;;;;;;;5004831;28;20034;-70
2021/07/20 09:46:02;;;;;;;4.53;1.63;;;;;;;;;;5035127;28;20021;-69
2021/07/20 09:48:34;;;;;;;2.50;1.23;;;;;;;;;;5014863;28;20037;-69
2021/07/20 09:51:21;;;;;;;2.35;1.10;;;;;;;;;;5012024;28;20116;-69
2021/07/20 09:54:03;;;;;;;2.45;1.50;;;;;;;;;;4990154;28;20081;-69
2021/07/20 09:56:35;;;;;;;2.22;1.27;;;;;;;;;;5016276;28;20379;-69
2021/07/20 09:59:10;;;;;;;2.17;1.55;;;;;;;;;;5033000;28;20020;-70
2021/07/20 10:01:40;;;;;;;2.20;1.55;;;;;;;;;;5032852;28;20045;-70
2021/07/20 10:04:07;;;;;;;2.63;1.30;;;;;;;;;;5015657;28;20490;-70
2021/07/20 10:06:47;;;;;;;3.22;1.33;;;;;;;;;;5033300;28;20113;-69
2021/07/20 10:09:14;;;;;;;4.18;1.33;;;;;;;;;;5027345;28;20050;-67
2021/07/20 10:11:47;;;;;;;2.20;1.27;;;;;;;;;;5025529;28;20031;-67
2021/07/20 10:14:20;;;;;;;3.13;1.20;;;;;;;;;;5020905;28;20030;-68
2021/07/20 10:16:48;;;;;;;3.67;1.23;;;;;;;;;;5032362;28;20390;-69
2021/07/20 10:19:25;;;;;;;2.53;1.48;;;;;;;;;;5030603;28;20032;-69
2021/07/20 10:21:57;;;;;;;2.45;1.48;;;;;;;;;;5030698;28;20048;-70
2021/07/20 10:24:27;;;;;;;3.38;1.40;;;;;;;;;;5003877;28;20560;-69
2021/07/20 10:27:06;;;;;;;1.70;0.82;;;;;;;;;;5022723;28;20035;-70
2021/07/20 10:29:43;;;;;;;2.30;0.98;;;;;;;;;;5030172;28;20034;-69
2021/07/20 10:32:15;;;;;;;2.20;1.00;;;;;;;;;;5030798;28;20030;-70
2021/07/20 10:34:48;;;;;;;2.10;1.20;;;;;;;;;;5032093;28;20025;-69
2021/07/20 10:37:22;;;;;;;1.75;1.00;;;;;;;;;;5005552;28;20060;-69
2021/07/20 10:39:49;;;;;;;2.30;1.20;;;;;;;;;;5013033;28;20025;-71
2021/07/20 10:42:22;;;;;;;2.20;1.00;;;;;;;;;;5015961;28;20095;-73
2021/07/20 10:44:55;;;;;;;1.20;0.70;;;;;;;;;;5035813;28;20048;-72
2021/07/20 10:47:25;;;;;;;1.50;0.80;;;;;;;;;;5014527;28;20485;-72
2021/07/20 10:49:52;;;;;;;2.45;0.90;;;;;;;;;;5016841;28;20116;-71
2021/07/20 10:52:25;;;;;;;1.38;0.73;;;;;;;;;;5032299;28;20101;-73
2021/07/20 10:54:58;;;;;;;2.22;0.93;;;;;;;;;;5032970;28;20037;-72
2021/07/20 10:57:33;;;;;;;1.33;0.82;;;;;;;;;;4994329;28;20105;-73
2021/07/20 11:00:08;;;;;;;2.45;0.90;;;;;;;;;;4994519;28;20097;-71
2021/07/20 11:02:45;;;;;;;3.75;0.68;;;;;;;;;;5006329;28;20324;-72
2021/07/20 11:05:12;;;;;;;1.67;0.68;;;;;;;;;;5018179;28;20033;-71
2021/07/20 11:07:50;;;;;;;1.35;0.65;;;;;;;;;;5031631;28;20071;-71
2021/07/20 11:10:30;;;;;;;0.90;0.45;;;;;;;;;;5032787;28;20112;-72
2021/07/20 11:13:03;;;;;;;0.82;0.47;;;;;;;;;;5014380;28;20120;-72
2021/07/20 11:15:31;;;;;;;1.42;0.65;;;;;;;;;;5032227;28;20025;-73
2021/07/20 11:18:00;;;;;;;1.27;0.50;;;;;;;;;;5033157;28;20033;-71
2021/07/20 11:20:28;;;;;;;1.90;0.52;;;;;;;;;;5028800;28;20024;-72
2021/07/20 11:22:55;;;;;;;1.02;0.60;;;;;;;;;;5027116;28;20485;-71
2021/07/20 11:25:22;;;;;;;1.25;0.60;;;;;;;;;;5032752;28;20053;-71
2021/07/20 11:27:50;;;;;;;1.20;0.75;;;;;;;;;;5013668;28;20121;-73
2021/07/20 11:30:19;;;;;;;0.93;0.57;;;;;;;;;;5024689;28;20109;-72
2021/07/20 11:32:57;;;;;;;1.15;0.40;;;;;;;;;;4994450;28;20037;-72
2021/07/20 11:35:26;;;;;;;1.00;0.50;;;;;;;;;;5011395;28;20367;-73
2021/07/20 11:38:00;;;;;;;1.65;0.40;;;;;;;;;;5024728;28;20483;-73
2021/07/20 11:40:31;;;;;;;1.05;0.55;;;;;;;;;;5022575;28;20415;-73
2021/07/20 11:43:06;;;;;;;1.10;0.30;;;;;;;;;;5018187;28;20027;-73
2021/07/20 11:45:32;;;;;;;;;;;;;;;;;;5020612;28;20025;-73
2021/07/20 11:48:03;;;;;;;1.42;0.45;;;;;;;;;;5023540;28;19916;-72
2021/07/20 11:50:37;;;;;;;0.75;0.50;;;;;;;;;;5018387;28;20094;-72
2021/07/20 11:53:22;;;;;;;2.55;0.40;;;;;;;;;;5025689;28;20425;-72
2021/07/20 11:55:54;;;;;;;1.15;0.50;;;;;;;;;;5020465;28;20087;-73
2021/07/20 11:58:30;;;;;;;0.88;0.30;;;;;;;;;;5017543;28;20026;-72
2021/07/20 12:01:10;;;;;;;0.82;0.47;;;;;;;;;;5015713;28;20036;-72
2021/07/20 12:03:45;;;;;;;1.48;0.47;;;;;;;;;;5014310;28;20032;-73
2021/07/20 12:06:13;;;;;;;1.42;0.45;;;;;;;;;;5014061;28;20022;-73
2021/07/20 12:08:47;;;;;;;0.85;0.60;;;;;;;;;;5013716;28;20060;-73
2021/07/20 12:11:14;;;;;;;0.68;0.20;;;;;;;;;;5011336;28;20120;-73
2021/07/20 12:13:41;;;;;;;1.50;0.40;;;;;;;;;;5011637;28;20088;-73
2021/07/20 12:16:12;;;;;;;1.05;0.40;;;;;;;;;;5026110;28;20466;-73
2021/07/20 12:18:50;;;;;;;0.70;0.30;;;;;;;;;;5001294;28;20445;-72
2021/07/20 12:21:21;;;;;;;1.27;0.40;;;;;;;;;;5021852;28;20368;-72
2021/07/20 12:23:54;;;;;;;1.63;0.50;;;;;;;;;;5010939;28;20037;-73
2021/07/20 12:26:22;;;;;;;0.93;0.50;;;;;;;;;;5014510;28;20490;-72
2021/07/20 12:28:49;;;;;;;1.63;0.50;;;;;;;;;;5005207;28;20112;-73
2021/07/20 12:31:17;;;;;;;0.80;0.40;;;;;;;;;;5014459;28;20026;-74
2021/07/20 12:33:45;;;;;;;1.27;0.45;;;;;;;;;;5030641;28;20714;-71
2021/07/20 12:36:13;;;;;;;1.30;0.80;;;;;;;;;;5020543;28;20478;-73
2021/07/20 12:38:41;;;;;;;1.60;0.40;;;;;;;;;;5023140;28;20526;-72
2021/07/20 12:41:09;;;;;;;0.77;0.40;;;;;;;;;;5034485;28;20405;-72
2021/07/20 12:43:37;;;;;;;2.00;0.40;;;;;;;;;;5034175;28;20064;-73
2021/07/20 12:46:14;;;;;;;0.88;0.30;;;;;;;;;;5014400;28;20030;-72
2021/07/20 12:48:49;;;;;;;1.02;0.50;;;;;;;;;;5029899;28;20087;-71
2021/07/20 12:51:15;;;;;;;;;;;;;;;;;;5034422;28;20034;-75
2021/07/20 12:53:46;;;;;;;1.52;0.73;;;;;;;;;;5016699;28;19939;-72
2021/07/20 12:56:18;;;;;;;1.75;0.85;;;;;;;;;;5013005;28;20068;-73
2021/07/20 12:58:45;;;;;;;1.33;0.52;;;;;;;;;;5027056;28;20030;-73
2021/07/20 13:01:13;;;;;;;1.20;0.73;;;;;;;;;;5026687;28;20075;-71
2021/07/20 13:03:41;;;;;;;4.07;1.45;;;;;;;;;;5029865;28;20472;-73
2021/07/20 13:06:09;;;;;;;2.40;0.80;;;;;;;;;;5035179;28;20018;-72
2021/07/20 13:08:36;;;;;;;1.50;0.80;;;;;;;;;;5034603;28;20048;-73
2021/07/20 13:11:04;;;;;;;2.00;0.90;;;;;;;;;;5034514;28;20029;-72
2021/07/20 13:13:31;;;;;;;1.83;0.88;;;;;;;;;;5011483;28;20056;-73
2021/07/20 13:15:59;;;;;;;2.88;1.17;;;;;;;;;;5020850;28;20029;-73
2021/07/20 13:18:28;;;;;;;2.70;1.08;;;;;;;;;;5011379;28;20176;-73
2021/07/20 13:21:02;;;;;;;2.45;1.30;;;;;;;;;;5012144;28;20026;-73
2021/07/20 13:23:34;;;;;;;2.33;1.40;;;;;;;;;;5003246;28;20165;-73
2021/07/20 13:26:01;;;;;;;1.70;1.02;;;;;;;;;;5014179;28;20539;-75
2021/07/20 13:28:29;;;;;;;4.43;1.10;;;;;;;;;;5027779;28;20022;-72
2021/07/20 13:31:00;;;;;;;2.42;1.35;;;;;;;;;;5017456;28;20030;-73
2021/07/20 13:33:27;;;;;;;2.97;1.20;;;;;;;;;;5028123;28;20033;-73
2021/07/20 13:35:55;;;;;;;2.30;1.20;;;;;;;;;;5009211;28;20038;-75
2021/07/20 13:38:24;;;;;;;3.15;1.10;;;;;;;;;;5023680;28;20494;-72
2021/07/20 13:40:51;;;;;;;2.45;1.10;;;;;;;;;;5032472;28;20036;-72
2021/07/20 13:43:19;;;;;;;3.08;1.35;;;;;;;;;;5027733;28;20109;-73
2021/07/20 13:45:48;;;;;;;2.47;1.27;;;;;;;;;;5031285;28;20372;-72
2021/07/20 13:48:17;;;;;;;2.40;1.00;;;;;;;;;;5015803;28;20025;-73
2021/07/20 13:50:46;;;;;;;2.70;1.00;;;;;;;;;;5006468;28;20088;-72
2021/07/20 13:53:15;;;;;;;1.70;0.70;;;;;;;;;;5024352;28;20117;-72
2021/07/20 13:55:44;;;;;;;3.17;1.00;;;;;;;;;;5024004;28;20030;-72
2021/07/20 13:58:12;;;;;;;1.52;1.00;;;;;;;;;;5025270;28;20037;-73
2021/07/20 14:00:40;;;;;;;2.13;0.88;;;;;;;;;;5013888;28;20397;-73
2021/07/20 14:03:10;;;;;;;2.38;0.68;;;;;;;;;;5034300;28;20429;-73
2021/07/20 14:05:37;;;;;;;1.17;0.50;;;;;;;;;;5033145;28;20481;-73
2021/07/20 14:08:05;;;;;;;1.92;0.90;;;;;;;;;;5027046;28;20022;-73
2021/07/20 14:10:33;;;;;;;1.70;0.65;;;;;;;;;;5010762;28;20505;-73
2021/07/20 14:13:01;;;;;;;0.88;0.55;;;;;;;;;;5026759;28;20075;-73
2021/07/20 14:15:29;;;;;;;2.15;0.60;;;;;;;;;;5026002;28;20028;-73
2021/07/20 14:17:57;;;;;;;1.60;0.90;;;;;;;;;;5009791;28;20037;-74
2021/07/20 14:20:32;;;;;;;1.48;0.60;;;;;;;;;;5027827;28;20022;-73
2021/07/20 14:23:02;;;;;;;1.38;0.68;;;;;;;;;;5032713;28;20436;-73
2021/07/20 14:25:29;;;;;;;0.88;0.35;;;;;;;;;;4996880;28;20038;-74
2021/07/20 14:27:59;;;;;;;0.98;0.47;;;;;;;;;;5000671;28;20482;-73
2021/07/20 14:30:27;;;;;;;1.02;0.60;;;;;;;;;;5033353;28;20436;-73
2021/07/20 14:32:54;;;;;;;1.65;0.40;;;;;;;;;;5032950;28;20029;-72
2021/07/20 14:35:47;;;;;;;1.30;0.50;;;;;;;;;;5019893;28;20032;-73
2021/07/20 14:38:16;;;;;;;1.55;0.40;;;;;;;;;;5023992;28;20119;-73
2021/07/20 14:40:43;;;;;;;0.90;0.68;;;;;;;;;;5015103;28;20191;-73
2021/07/20 14:43:11;;;;;;;1.75;0.50;;;;;;;;;;5033611;28;20025;-73
2021/07/20 14:45:39;;;;;;;2.70;0.70;;;;;;;;;;5001778;28;20030;-73
2021/07/20 14:48:07;;;;;;;1.55;0.65;;;;;;;;;;5007403;28;20037;-73
2021/07/20 14:50:41;;;;;;;1.73;0.60;;;;;;;;;;5031047;28;20030;-73
2021/07/20 14:53:08;;;;;;;0.80;0.50;;;;;;;;;;5023236;28;20119;-73
2021/07/20 14:55:37;;;;;;;1.25;0.30;;;;;;;;;;5013219;28;20038;-73
2021/07/20 14:58:16;;;;;;;1.00;0.35;;;;;;;;;;5013540;28;20061;-73
2021/07/20 15:00:55;;;;;;;0.45;0.20;;;;;;;;;;5023977;28;20528;-73
2021/07/20 15:03:35;;;;;;;0.52;0.20;;;;;;;;;;4998212;28;20026;-73